Time;durP1;ratioP1;P1;durP2;ratioP2;P2;SDS_P1;SDS_P2;PMS_P1;PMS_P2;Temp;Humidity;BMP_temperature;BMP_pressure;BME280_temperature;BME280_humidity;BME280_pressure;Samples;Min_cycle;Max_cycle;Signal;HPM_P1;HPM_P2
2022/09/29 00:00:42;;;;;;;0.00;0.00;;;14.80;84.90;;;;;;4159554;28;20060;-63
2022/09/29 00:03:23;;;;;;;0.10;0.10;;;14.80;85.00;;;;;;4166670;28;20139;-63
2022/09/29 00:06:13;;;;;;;0.00;0.00;;;14.80;85.00;;;;;;4159539;28;20051;-61
2022/09/29 00:08:53;;;;;;;0.00;0.00;;;14.80;85.00;;;;;;4158222;28;20464;-60
2022/09/29 00:11:34;;;;;;;0.00;0.00;;;14.80;85.00;;;;;;4158247;28;20275;-61
2022/09/29 00:14:15;;;;;;;0.00;0.00;;;14.80;85.10;;;;;;4167423;28;20064;-61
2022/09/29 00:16:57;;;;;;;0.00;0.00;;;14.80;85.10;;;;;;4159184;28;20498;-61
2022/09/29 00:19:37;;;;;;;0.00;0.00;;;14.80;85.10;;;;;;4159251;28;20405;-61
2022/09/29 00:22:20;;;;;;;0.00;0.00;;;14.70;85.00;;;;;;4157981;28;20099;-61
2022/09/29 00:25:01;;;;;;;0.00;0.00;;;14.70;85.00;;;;;;4159278;28;20127;-61
2022/09/29 00:27:42;;;;;;;0.00;0.00;;;14.70;85.00;;;;;;4159166;28;20071;-62
2022/09/29 00:30:23;;;;;;;0.00;0.00;;;14.70;85.10;;;;;;4160420;28;20382;-62
2022/09/29 00:33:04;;;;;;;0.00;0.00;;;14.70;85.00;;;;;;4159821;28;20508;-62
2022/09/29 00:35:44;;;;;;;0.00;0.00;;;14.70;85.10;;;;;;4159220;28;20060;-62
2022/09/29 00:38:27;;;;;;;0.00;0.00;;;14.70;85.10;;;;;;4159185;28;20056;-61
2022/09/29 00:41:16;;;;;;;0.10;0.10;;;14.70;85.10;;;;;;4159509;28;20095;-60
2022/09/29 00:44:00;;;;;;;0.00;0.00;;;14.70;85.10;;;;;;4180060;28;20048;-61
2022/09/29 00:46:45;;;;;;;0.00;0.00;;;14.70;85.40;;;;;;4158840;28;20060;-61
2022/09/29 00:49:29;;;;;;;0.35;0.35;;;14.70;85.60;;;;;;4159094;28;20064;-61
2022/09/29 00:52:15;;;;;;;0.00;0.00;;;14.70;85.70;;;;;;4167583;28;20133;-61
2022/09/29 00:55:01;;;;;;;0.00;0.00;;;14.70;85.70;;;;;;4166845;28;20048;-63
2022/09/29 00:57:45;;;;;;;0.03;0.03;;;14.70;85.60;;;;;;4166121;28;20056;-63
2022/09/29 01:00:26;;;;;;;0.00;0.00;;;14.70;85.50;;;;;;4173426;28;20410;-62
2022/09/29 01:03:13;;;;;;;0.00;0.00;;;14.70;85.40;;;;;;4174753;28;20605;-63
2022/09/29 01:05:57;;;;;;;0.00;0.00;;;14.60;85.40;;;;;;4174102;28;20064;-62
2022/09/29 01:08:43;;;;;;;0.00;0.00;;;14.60;85.40;;;;;;4174777;28;20133;-63
2022/09/29 01:11:26;;;;;;;0.00;0.00;;;14.60;85.30;;;;;;4168104;28;20068;-63
2022/09/29 01:14:09;;;;;;;0.00;0.00;;;14.60;85.30;;;;;;4173356;28;20075;-62
2022/09/29 01:16:50;;;;;;;0.10;0.10;;;14.60;85.40;;;;;;4173579;28;20574;-63
2022/09/29 01:19:43;;;;;;;0.00;0.00;;;14.60;85.30;;;;;;4173505;28;20067;-63
2022/09/29 01:22:52;;;;;;;0.45;0.45;;;14.60;85.30;;;;;;4159165;28;20152;-64
2022/09/29 01:25:54;;;;;;;0.00;0.00;;;14.60;85.40;;;;;;4157906;28;20126;-62
2022/09/29 01:28:47;;;;;;;;;;;14.60;85.40;;;;;;4158286;28;20255;-63
2022/09/29 01:31:34;;;;;;;0.00;0.00;;;14.60;85.40;;;;;;4157907;28;20385;-63
2022/09/29 01:34:22;;;;;;;0.00;0.00;;;14.60;85.40;;;;;;4157580;28;20052;-62
2022/09/29 01:37:16;;;;;;;0.00;0.00;;;14.50;85.50;;;;;;4157920;28;20573;-62
2022/09/29 01:40:06;;;;;;;0.00;0.00;;;14.50;85.50;;;;;;4157948;28;20413;-62
2022/09/29 01:42:54;;;;;;;0.00;0.00;;;14.50;85.50;;;;;;4159631;28;20520;-63
2022/09/29 01:45:39;;;;;;;0.10;0.10;;;14.50;86.40;;;;;;4173873;28;20397;-62
2022/09/29 01:48:25;;;;;;;0.00;0.00;;;14.50;85.60;;;;;;4174720;28;20055;-62
2022/09/29 01:51:10;;;;;;;0.00;0.00;;;14.50;85.60;;;;;;4174664;28;20063;-62
2022/09/29 01:53:53;;;;;;;0.00;0.00;;;14.50;85.70;;;;;;4165644;28;20060;-63
2022/09/29 01:56:39;;;;;;;0.00;0.00;;;14.50;85.60;;;;;;4171874;28;20138;-62
2022/09/29 01:59:24;;;;;;;0.00;0.00;;;14.50;85.60;;;;;;4171774;28;20068;-62
2022/09/29 02:02:09;;;;;;;0.00;0.00;;;14.50;85.60;;;;;;4174874;28;20599;-63
2022/09/29 02:04:57;;;;;;;0.00;0.00;;;14.50;85.60;;;;;;4158749;28;20135;-61
2022/09/29 02:07:41;;;;;;;0.00;0.00;;;14.50;85.60;;;;;;4157810;28;20071;-60
2022/09/29 02:10:27;;;;;;;0.00;0.00;;;14.50;85.60;;;;;;4157903;28;20053;-60
2022/09/29 02:13:11;;;;;;;0.00;0.00;;;14.50;85.70;;;;;;4158060;28;20231;-61
2022/09/29 02:15:56;;;;;;;0.00;0.00;;;14.50;85.60;;;;;;4168439;28;20048;-61
2022/09/29 02:18:42;;;;;;;0.00;0.00;;;14.40;85.50;;;;;;4174135;28;20091;-60
2022/09/29 02:21:25;;;;;;;0.00;0.00;;;14.40;85.60;;;;;;4173505;28;20079;-60
2022/09/29 02:24:06;;;;;;;0.00;0.00;;;14.40;85.60;;;;;;4165944;28;20188;-61
2022/09/29 02:26:47;;;;;;;0.00;0.00;;;14.40;85.60;;;;;;4157568;28;20064;-60
2022/09/29 02:29:28;;;;;;;0.00;0.00;;;14.40;85.60;;;;;;4156413;28;20144;-60
2022/09/29 02:32:09;;;;;;;0.00;0.00;;;14.40;85.60;;;;;;4160367;28;20642;-60
2022/09/29 02:34:52;;;;;;;0.00;0.00;;;14.40;85.60;;;;;;4158377;28;20064;-60
2022/09/29 02:37:56;;;;;;;0.00;0.00;;;14.40;85.60;;;;;;4160436;28;20064;-60
2022/09/29 02:40:44;;;;;;;0.20;0.20;;;14.40;85.60;;;;;;4160391;28;20739;-61
2022/09/29 02:43:40;;;;;;;0.00;0.00;;;14.40;85.60;;;;;;4161265;28;20501;-60
2022/09/29 02:46:35;;;;;;;0.00;0.00;;;14.30;85.60;;;;;;4161073;28;20134;-60
2022/09/29 02:49:31;;;;;;;0.00;0.00;;;14.30;85.60;;;;;;4160419;28;20481;-60
2022/09/29 02:52:22;;;;;;;0.00;0.00;;;14.30;85.60;;;;;;4160393;28;20052;-61
2022/09/29 02:55:12;;;;;;;0.30;0.30;;;14.30;86.40;;;;;;4161245;28;20155;-61
2022/09/29 02:57:59;;;;;;;0.00;0.00;;;14.30;85.60;;;;;;4160117;28;20056;-61
2022/09/29 03:00:41;;;;;;;0.00;0.00;;;14.30;85.60;;;;;;4160527;28;20127;-61
2022/09/29 03:03:21;;;;;;;;;;;14.30;85.70;;;;;;4163800;28;20682;-61
2022/09/29 03:06:02;;;;;;;0.00;0.00;;;14.30;85.90;;;;;;4164070;28;20067;-61
2022/09/29 03:08:43;;;;;;;0.00;0.00;;;14.30;85.70;;;;;;4161448;28;20410;-61
2022/09/29 03:11:26;;;;;;;0.00;0.00;;;14.30;85.60;;;;;;4175380;28;20147;-62
2022/09/29 03:14:07;;;;;;;0.00;0.00;;;14.30;85.60;;;;;;4176729;28;20114;-61
2022/09/29 03:16:47;;;;;;;0.00;0.00;;;14.20;85.60;;;;;;4176546;28;20904;-61
2022/09/29 03:19:29;;;;;;;0.15;0.15;;;14.20;85.50;;;;;;4172366;28;20098;-61
2022/09/29 03:22:09;;;;;;;0.00;0.00;;;14.20;85.60;;;;;;4176605;28;20126;-61
2022/09/29 03:24:50;;;;;;;0.00;0.00;;;14.30;85.50;;;;;;4176362;28;20075;-60
2022/09/29 03:27:33;;;;;;;0.00;0.00;;;14.40;85.30;;;;;;4170830;28;20060;-60
2022/09/29 03:30:14;;;;;;;0.32;0.32;;;14.40;85.00;;;;;;4159703;28;20056;-61
2022/09/29 03:32:55;;;;;;;0.00;0.00;;;14.50;84.80;;;;;;4159447;28;20048;-60
2022/09/29 03:35:36;;;;;;;0.00;0.00;;;14.50;84.50;;;;;;4162580;28;20055;-61
2022/09/29 03:38:19;;;;;;;0.00;0.00;;;14.50;84.30;;;;;;4175425;28;20066;-61
2022/09/29 03:40:59;;;;;;;0.10;0.10;;;14.60;84.20;;;;;;4176089;28;20103;-63
2022/09/29 03:43:42;;;;;;;0.00;0.00;;;14.60;84.00;;;;;;4176097;28;20060;-61
2022/09/29 03:46:22;;;;;;;0.00;0.00;;;14.60;84.00;;;;;;4175951;28;20056;-61
2022/09/29 03:49:03;;;;;;;0.00;0.00;;;14.50;83.90;;;;;;4175796;28;20051;-62
2022/09/29 03:51:45;;;;;;;0.00;0.00;;;14.50;83.90;;;;;;4159315;28;20135;-61
2022/09/29 03:54:26;;;;;;;0.00;0.00;;;14.50;83.90;;;;;;4160068;28;20406;-60
2022/09/29 03:57:07;;;;;;;0.00;0.00;;;14.50;84.00;;;;;;4158414;28;20049;-60
2022/09/29 03:59:50;;;;;;;0.00;0.00;;;14.40;84.90;;;;;;4159733;28;20222;-60
2022/09/29 04:02:33;;;;;;;0.00;0.00;;;14.40;84.10;;;;;;4159951;28;20199;-61
2022/09/29 04:05:14;;;;;;;0.00;0.00;;;14.40;84.30;;;;;;4159849;28;20060;-60
2022/09/29 04:07:55;;;;;;;0.00;0.00;;;14.30;84.30;;;;;;4159196;28;20055;-60
2022/09/29 04:10:37;;;;;;;0.10;0.10;;;14.30;84.40;;;;;;4159544;28;20060;-60
2022/09/29 04:13:18;;;;;;;0.00;0.00;;;14.30;84.40;;;;;;4159708;28;20091;-60
2022/09/29 04:16:04;;;;;;;0.00;0.00;;;14.30;84.60;;;;;;4159364;28;20060;-61
2022/09/29 04:18:44;;;;;;;0.00;0.00;;;14.20;84.60;;;;;;4159103;28;20053;-60
2022/09/29 04:21:25;;;;;;;0.00;0.00;;;14.20;84.70;;;;;;4159628;28;20041;-60
2022/09/29 04:24:07;;;;;;;0.00;0.00;;;14.20;84.80;;;;;;4158963;28;20056;-60
2022/09/29 04:26:48;;;;;;;0.00;0.00;;;14.20;85.10;;;;;;4158854;28;20502;-60
2022/09/29 04:29:28;;;;;;;0.00;0.00;;;14.10;85.00;;;;;;4157941;28;20164;-61
2022/09/29 04:32:11;;;;;;;0.00;0.00;;;14.10;85.20;;;;;;4158984;28;20099;-61
2022/09/29 04:34:52;;;;;;;0.68;0.60;;;14.10;85.20;;;;;;4158230;28;20560;-60
2022/09/29 04:37:33;;;;;;;0.00;0.00;;;14.10;85.20;;;;;;4158251;28;20060;-61
2022/09/29 04:40:14;;;;;;;0.00;0.00;;;14.10;85.20;;;;;;4158343;28;20517;-60
2022/09/29 04:42:55;;;;;;;0.00;0.00;;;14.10;85.30;;;;;;4158754;28;20174;-60
2022/09/29 04:45:36;;;;;;;0.00;0.00;;;14.10;85.30;;;;;;4158503;28;20048;-60
2022/09/29 04:48:18;;;;;;;0.00;0.00;;;14.00;85.30;;;;;;4158778;28;20099;-60
2022/09/29 04:50:59;;;;;;;0.00;0.00;;;14.00;85.30;;;;;;4162405;28;20060;-61
2022/09/29 04:53:40;;;;;;;0.00;0.00;;;14.00;85.40;;;;;;4158429;28;20056;-60
2022/09/29 04:56:21;;;;;;;0.00;0.00;;;14.00;85.30;;;;;;4158195;28;20679;-59
2022/09/29 04:59:02;;;;;;;0.00;0.00;;;14.00;85.30;;;;;;4158545;28;20458;-60
2022/09/29 05:01:43;;;;;;;0.17;0.17;;;14.00;85.30;;;;;;4158260;28;20401;-63
2022/09/29 05:04:25;;;;;;;0.00;0.00;;;14.10;85.10;;;;;;4170623;28;20084;-62
2022/09/29 05:07:05;;;;;;;0.00;0.00;;;14.30;84.70;;;;;;4174846;28;20060;-63
2022/09/29 05:09:47;;;;;;;0.00;0.00;;;14.40;84.30;;;;;;4174359;28;20051;-63
2022/09/29 05:12:27;;;;;;;0.00;0.00;;;14.40;83.90;;;;;;4174784;28;20072;-63
2022/09/29 05:15:09;;;;;;;0.00;0.00;;;14.40;83.60;;;;;;4168202;28;20048;-63
2022/09/29 05:17:50;;;;;;;0.00;0.00;;;14.50;83.50;;;;;;4167814;28;20603;-62
2022/09/29 05:20:33;;;;;;;0.00;0.00;;;14.50;83.50;;;;;;4174845;28;20071;-62
2022/09/29 05:23:23;;;;;;;0.15;0.15;;;14.50;83.40;;;;;;4163588;28;20191;-63
2022/09/29 05:26:05;;;;;;;0.00;0.00;;;14.50;83.40;;;;;;4156981;28;20044;-63
2022/09/29 05:28:48;;;;;;;0.00;0.00;;;14.50;83.60;;;;;;4157986;28;20180;-62
2022/09/29 05:31:28;;;;;;;0.00;0.00;;;14.50;84.60;;;;;;4158013;28;20695;-63
2022/09/29 05:34:10;;;;;;;0.00;0.00;;;14.50;83.40;;;;;;4161585;28;20187;-61
2022/09/29 05:36:52;;;;;;;0.00;0.00;;;14.50;83.00;;;;;;4162970;28;20191;-62
2022/09/29 05:39:33;;;;;;;0.00;0.00;;;14.50;82.80;;;;;;4167220;28;20199;-63
2022/09/29 05:42:14;;;;;;;0.65;0.65;;;14.50;82.80;;;;;;4158403;28;20497;-63
2022/09/29 05:44:55;;;;;;;0.00;0.00;;;14.50;83.00;;;;;;4173224;28;20774;-63
2022/09/29 05:47:36;;;;;;;0.00;0.00;;;14.40;83.10;;;;;;4167484;28;20626;-63
2022/09/29 05:50:17;;;;;;;0.00;0.00;;;14.40;83.20;;;;;;4157883;28;20048;-63
2022/09/29 05:53:04;;;;;;;0.10;0.10;;;14.40;83.40;;;;;;4168238;28;20071;-63
2022/09/29 05:55:45;;;;;;;0.00;0.00;;;14.30;83.30;;;;;;4157744;28;20508;-63
2022/09/29 05:58:26;;;;;;;0.00;0.00;;;14.30;83.30;;;;;;4157966;28;20524;-62
2022/09/29 06:01:08;;;;;;;0.30;0.30;;;14.30;83.40;;;;;;4157827;28;20547;-64
2022/09/29 06:03:49;;;;;;;;;;;14.20;83.50;;;;;;4157766;28;20048;-63
2022/09/29 06:06:30;;;;;;;0.00;0.00;;;14.20;83.60;;;;;;4157051;28;20794;-63
2022/09/29 06:09:13;;;;;;;0.28;0.28;;;14.20;83.60;;;;;;4157156;28;20068;-63
2022/09/29 06:11:54;;;;;;;0.00;0.00;;;14.10;83.70;;;;;;4160598;28;20505;-63
2022/09/29 06:14:35;;;;;;;0.00;0.00;;;14.10;83.70;;;;;;4160810;28;20172;-63
2022/09/29 06:17:16;;;;;;;0.00;0.00;;;14.00;83.80;;;;;;4160600;28;20520;-63
2022/09/29 06:19:57;;;;;;;0.00;0.00;;;14.10;83.90;;;;;;4160677;28;20122;-63
2022/09/29 06:22:38;;;;;;;0.00;0.00;;;14.10;83.90;;;;;;4160942;28;20060;-63
2022/09/29 06:25:21;;;;;;;0.00;0.00;;;14.00;83.90;;;;;;4160823;28;20196;-63
2022/09/29 06:28:02;;;;;;;0.00;0.00;;;14.00;84.00;;;;;;4160677;28;20836;-63
2022/09/29 06:30:42;;;;;;;0.83;0.43;;;14.00;84.40;;;;;;4160624;28;20068;-63
2022/09/29 06:33:23;;;;;;;0.00;0.00;;;14.00;84.60;;;;;;4159645;28;20075;-63
2022/09/29 06:39:08;;;;;;;0.00;0.00;;;14.00;84.80;;;;;;4160108;28;20060;-64
2022/09/29 06:41:53;;;;;;;0.28;0.28;;;14.00;84.70;;;;;;4160630;28;20052;-65
2022/09/29 06:44:34;;;;;;;0.00;0.00;;;13.90;84.70;;;;;;4160047;28;20056;-64
2022/09/29 06:47:15;;;;;;;0.00;0.00;;;13.90;84.60;;;;;;4160445;28;20068;-64
2022/09/29 06:49:55;;;;;;;0.05;0.05;;;13.90;84.70;;;;;;4160256;28;20060;-65
2022/09/29 06:52:37;;;;;;;0.20;0.20;;;13.90;85.70;;;;;;4160347;28;20094;-64
2022/09/29 06:55:18;;;;;;;0.00;0.00;;;13.90;84.90;;;;;;4160148;28;20505;-65
2022/09/29 06:58:01;;;;;;;0.13;0.13;;;13.90;84.90;;;;;;4164252;28;20060;-65
2022/09/29 07:00:44;;;;;;;0.00;0.00;;;13.90;84.90;;;;;;4162897;28;20106;-65
2022/09/29 07:03:26;;;;;;;0.00;0.00;;;13.90;84.80;;;;;;4160170;28;20056;-64
2022/09/29 07:06:09;;;;;;;0.00;0.00;;;13.90;84.90;;;;;;4159989;28;20045;-65
2022/09/29 07:09:06;;;;;;;0.00;0.00;;;13.90;84.90;;;;;;4157765;28;20108;-65
2022/09/29 07:11:49;;;;;;;0.00;0.00;;;13.90;84.90;;;;;;4158745;28;20056;-65
2022/09/29 07:14:31;;;;;;;0.00;0.00;;;13.90;84.90;;;;;;4160253;28;20206;-61
2022/09/29 07:17:13;;;;;;;0.00;0.00;;;13.80;84.90;;;;;;4159875;28;20056;-61
2022/09/29 07:19:55;;;;;;;0.00;0.00;;;13.90;85.10;;;;;;4158618;28;20505;-64
2022/09/29 07:22:36;;;;;;;0.00;0.00;;;13.90;85.30;;;;;;4160012;28;20056;-62
2022/09/29 07:25:17;;;;;;;0.00;0.00;;;13.90;85.40;;;;;;4166494;28;20064;-63
2022/09/29 07:28:13;;;;;;;0.05;0.05;;;14.00;85.40;;;;;;4174688;28;20509;-64
2022/09/29 07:31:04;;;;;;;0.00;0.00;;;14.00;85.40;;;;;;4175855;28;20179;-65
2022/09/29 07:33:53;;;;;;;0.00;0.00;;;14.00;85.40;;;;;;4158129;28;20477;-62
2022/09/29 07:36:37;;;;;;;0.00;0.00;;;14.10;85.50;;;;;;4153828;28;20068;-62
2022/09/29 07:39:21;;;;;;;0.00;0.00;;;14.10;85.60;;;;;;4170679;28;20052;-62
2022/09/29 07:42:02;;;;;;;0.00;0.00;;;14.20;85.60;;;;;;4173473;28;20195;-64
2022/09/29 07:44:47;;;;;;;0.08;0.08;;;14.20;85.60;;;;;;4164575;28;20060;-65
2022/09/29 07:47:33;;;;;;;0.00;0.00;;;14.20;85.40;;;;;;4167728;28;20071;-65
2022/09/29 07:50:14;;;;;;;0.55;0.55;;;14.30;85.40;;;;;;4158159;28;20501;-65
2022/09/29 07:52:55;;;;;;;1.45;0.57;;;14.30;85.20;;;;;;4170800;28;20055;-65
2022/09/29 07:55:36;;;;;;;1.15;0.90;;;14.30;85.00;;;;;;4154718;28;20067;-65
2022/09/29 07:58:17;;;;;;;0.15;0.15;;;14.30;84.90;;;;;;4154896;28;20059;-65
2022/09/29 08:00:58;;;;;;;0.00;0.00;;;14.30;84.90;;;;;;4165758;28;20048;-63
2022/09/29 08:03:42;;;;;;;0.00;0.00;;;14.30;84.90;;;;;;4159356;28;20147;-62
2022/09/29 08:06:25;;;;;;;0.00;0.00;;;14.30;84.90;;;;;;4167572;28;20060;-62
2022/09/29 08:09:07;;;;;;;0.43;0.43;;;14.40;84.90;;;;;;4156042;28;20056;-66
2022/09/29 08:11:48;;;;;;;;;;;14.40;84.90;;;;;;4163967;28;20056;-63
2022/09/29 08:14:39;;;;;;;0.20;0.20;;;14.40;84.90;;;;;;4170025;28;20022;-63
2022/09/29 08:17:23;;;;;;;2.35;0.95;;;14.40;84.90;;;;;;4166786;28;20508;-62
2022/09/29 08:20:07;;;;;;;0.00;0.00;;;14.50;85.20;;;;;;4161383;28;20194;-63
2022/09/29 08:22:48;;;;;;;0.52;0.47;;;14.40;85.20;;;;;;4169879;28;20055;-62
2022/09/29 08:25:29;;;;;;;0.00;0.00;;;14.40;85.20;;;;;;4170333;28;20218;-62
2022/09/29 08:28:10;;;;;;;0.00;0.00;;;14.50;85.30;;;;;;4168217;28;20059;-62
2022/09/29 08:30:53;;;;;;;0.00;0.00;;;14.50;85.30;;;;;;4161714;28;20366;-62
2022/09/29 08:33:35;;;;;;;0.57;0.57;;;14.50;85.30;;;;;;4161596;28;20103;-65
2022/09/29 08:36:19;;;;;;;0.00;0.00;;;14.50;85.30;;;;;;4167992;28;20101;-66
2022/09/29 08:39:00;;;;;;;0.00;0.00;;;14.50;85.30;;;;;;4162827;28;20048;-64
2022/09/29 08:41:51;;;;;;;0.00;0.00;;;14.50;85.30;;;;;;4161212;28;20055;-64
2022/09/29 08:44:39;;;;;;;0.00;0.00;;;14.50;85.10;;;;;;4158020;28;20191;-63
2022/09/29 08:47:28;;;;;;;0.00;0.00;;;14.50;85.10;;;;;;4158698;28;20401;-65
2022/09/29 08:50:30;;;;;;;0.00;0.00;;;14.50;85.10;;;;;;4148363;28;20274;-65
2022/09/29 08:53:16;;;;;;;0.00;0.00;;;14.50;86.10;;;;;;4161258;28;20082;-65
2022/09/29 08:56:13;;;;;;;0.50;0.50;;;14.50;85.30;;;;;;4158339;28;20110;-65
2022/09/29 08:58:54;;;;;;;0.00;0.00;;;14.50;85.30;;;;;;4157016;28;20052;-63
2022/09/29 09:01:49;;;;;;;0.00;0.00;;;14.50;85.50;;;;;;4163351;28;20072;-63
2022/09/29 09:05:02;;;;;;;0.00;0.00;;;14.60;85.60;;;;;;4158157;28;20059;-63
2022/09/29 09:07:48;;;;;;;0.00;0.00;;;14.60;85.50;;;;;;4156343;28;20408;-64
2022/09/29 09:10:45;;;;;;;0.52;0.35;;;14.60;85.40;;;;;;4155308;28;20100;-64
2022/09/29 09:13:45;;;;;;;0.10;0.10;;;14.60;85.30;;;;;;4160406;28;20056;-64
2022/09/29 09:16:34;;;;;;;0.05;0.05;;;14.70;85.30;;;;;;4169758;28;20048;-65
2022/09/29 09:19:36;;;;;;;0.10;0.10;;;14.70;85.20;;;;;;4165315;28;20055;-64
2022/09/29 09:22:25;;;;;;;0.00;0.00;;;14.70;85.00;;;;;;4156387;28;20084;-65
2022/09/29 09:25:18;;;;;;;0.15;0.15;;;14.80;85.00;;;;;;4156550;28;20450;-65
2022/09/29 09:28:16;;;;;;;0.00;0.00;;;14.80;84.90;;;;;;4157148;28;20055;-65
2022/09/29 09:31:01;;;;;;;0.00;0.00;;;14.80;84.70;;;;;;4167671;28;20059;-64
2022/09/29 09:33:46;;;;;;;0.25;0.25;;;14.80;84.60;;;;;;4151243;28;20480;-65
2022/09/29 09:36:45;;;;;;;0.25;0.25;;;14.90;84.60;;;;;;4155366;28;20146;-62
2022/09/29 09:39:31;;;;;;;0.17;0.17;;;14.90;85.30;;;;;;4162523;28;20079;-62
2022/09/29 09:42:18;;;;;;;0.00;0.00;;;14.90;84.30;;;;;;4158234;28;20609;-62
2022/09/29 09:45:05;;;;;;;0.85;0.85;;;15.00;84.20;;;;;;4141462;28;20051;-63
2022/09/29 09:47:50;;;;;;;0.10;0.10;;;15.00;84.20;;;;;;4168796;28;20064;-64
2022/09/29 09:50:31;;;;;;;0.00;0.00;;;15.00;84.10;;;;;;4163776;28;20581;-62
2022/09/29 09:53:18;;;;;;;0.00;0.00;;;15.00;84.00;;;;;;4164454;28;20607;-63
2022/09/29 09:56:12;;;;;;;0.03;0.03;;;15.10;84.00;;;;;;4153931;28;20076;-62
2022/09/29 09:59:09;;;;;;;0.00;0.00;;;15.10;84.00;;;;;;4167940;28;20413;-63
2022/09/29 10:01:51;;;;;;;0.00;0.00;;;15.10;83.80;;;;;;4163180;28;20428;-62
2022/09/29 10:04:32;;;;;;;0.00;0.00;;;15.10;83.70;;;;;;4158315;28;20151;-62
2022/09/29 10:07:13;;;;;;;0.00;0.00;;;15.10;83.60;;;;;;4159297;28;20056;-61
2022/09/29 10:09:55;;;;;;;0.00;0.00;;;15.20;83.50;;;;;;4154896;28;20054;-62
2022/09/29 10:12:36;;;;;;;0.00;0.00;;;15.20;83.50;;;;;;4168863;28;20145;-62
2022/09/29 10:15:22;;;;;;;0.05;0.05;;;15.20;83.50;;;;;;4152093;28;20092;-62
2022/09/29 10:18:11;;;;;;;0.00;0.00;;;15.20;83.40;;;;;;4160327;28;20481;-65
2022/09/29 10:20:52;;;;;;;2.63;1.45;;;15.20;83.40;;;;;;4140938;28;20067;-63
2022/09/29 10:23:34;;;;;;;0.00;0.00;;;15.20;83.50;;;;;;4166312;28;20414;-63
2022/09/29 10:26:19;;;;;;;0.00;0.00;;;15.30;83.60;;;;;;4164165;28;20442;-63
2022/09/29 10:29:03;;;;;;;0.00;0.00;;;15.30;83.50;;;;;;4155655;28;20462;-63
2022/09/29 10:31:59;;;;;;;0.00;0.00;;;15.30;83.40;;;;;;4161799;28;20473;-63
2022/09/29 10:34:43;;;;;;;0.00;0.00;;;15.30;83.20;;;;;;4156706;28;20051;-63
2022/09/29 10:37:29;;;;;;;0.00;0.00;;;15.30;83.10;;;;;;4163408;28;20070;-63
2022/09/29 10:40:17;;;;;;;0.03;0.03;;;15.30;83.10;;;;;;4164939;28;20056;-63
2022/09/29 10:42:58;;;;;;;0.05;0.05;;;15.40;83.10;;;;;;4165675;28;20052;-64
2022/09/29 10:45:48;;;;;;;0.00;0.00;;;15.40;83.00;;;;;;4162550;28;20064;-62
2022/09/29 10:48:29;;;;;;;0.00;0.00;;;15.40;82.80;;;;;;4161003;28;20099;-63
2022/09/29 10:51:25;;;;;;;0.00;0.00;;;15.50;82.80;;;;;;4164382;28;20063;-64
2022/09/29 10:54:10;;;;;;;0.00;0.00;;;15.50;82.70;;;;;;4159370;28;21016;-64
2022/09/29 10:56:52;;;;;;;0.00;0.00;;;15.50;82.80;;;;;;4166940;28;20129;-64
2022/09/29 10:59:32;;;;;;;;;;;15.60;82.70;;;;;;4170975;28;20084;-64
2022/09/29 11:02:21;;;;;;;0.00;0.00;;;15.60;82.60;;;;;;4157049;28;19979;-64
2022/09/29 11:05:05;;;;;;;0.00;0.00;;;15.60;82.50;;;;;;4168590;28;20048;-64
2022/09/29 11:07:48;;;;;;;0.00;0.00;;;15.70;82.50;;;;;;4166429;28;20272;-64
2022/09/29 11:10:31;;;;;;;0.00;0.00;;;15.70;82.60;;;;;;4159658;28;20060;-63
2022/09/29 11:13:37;;;;;;;0.00;0.00;;;15.60;82.50;;;;;;4157638;28;20057;-64
2022/09/29 11:16:23;;;;;;;1.63;1.08;;;15.70;82.50;;;;;;4157738;28;20067;-64
2022/09/29 11:19:07;;;;;;;0.00;0.00;;;15.70;82.40;;;;;;4171970;28;20130;-64
2022/09/29 11:22:06;;;;;;;0.00;0.00;;;15.70;82.40;;;;;;4164040;28;20540;-64
2022/09/29 11:25:18;;;;;;;0.00;0.00;;;15.70;82.30;;;;;;4159309;28;20077;-63
2022/09/29 11:28:17;;;;;;;0.00;0.00;;;15.70;82.30;;;;;;4159196;28;20126;-63
2022/09/29 11:31:11;;;;;;;0.00;0.00;;;15.70;82.30;;;;;;4163765;28;20071;-65
2022/09/29 11:34:04;;;;;;;0.00;0.00;;;15.70;82.10;;;;;;4166328;28;20060;-65
2022/09/29 11:36:54;;;;;;;0.90;0.90;;;15.70;81.90;;;;;;4171213;28;20052;-64
2022/09/29 11:39:44;;;;;;;0.00;0.00;;;15.80;82.10;;;;;;4161540;28;20088;-64
2022/09/29 11:42:55;;;;;;;0.00;0.00;;;15.80;83.00;;;;;;4158970;28;20524;-64
2022/09/29 11:45:43;;;;;;;0.00;0.00;;;15.90;82.10;;;;;;4164116;28;20086;-64
2022/09/29 11:48:52;;;;;;;0.00;0.00;;;15.90;82.00;;;;;;4165306;28;20405;-64
2022/09/29 11:51:48;;;;;;;0.00;0.00;;;15.90;82.70;;;;;;4161522;28;20064;-64
2022/09/29 11:54:48;;;;;;;0.08;0.08;;;16.00;81.80;;;;;;4165800;28;20133;-65
2022/09/29 11:57:44;;;;;;;0.05;0.05;;;16.00;81.70;;;;;;4171152;28;20101;-64
2022/09/29 12:00:39;;;;;;;0.00;0.00;;;16.10;81.60;;;;;;4163513;28;20207;-65
2022/09/29 12:03:31;;;;;;;0.03;0.03;;;16.10;81.50;;;;;;4164676;28;20060;-65
2022/09/29 12:06:41;;;;;;;0.00;0.00;;;16.10;81.40;;;;;;4166738;28;20179;-65
2022/09/29 12:09:38;;;;;;;0.00;0.00;;;16.20;81.40;;;;;;4157362;28;20363;-64
2022/09/29 12:12:28;;;;;;;0.00;0.00;;;16.20;81.00;;;;;;4172346;28;20059;-64
2022/09/29 12:15:24;;;;;;;0.00;0.00;;;16.10;80.90;;;;;;4170272;28;20159;-64
2022/09/29 12:18:16;;;;;;;0.00;0.00;;;16.20;80.70;;;;;;4170297;28;20137;-64
2022/09/29 12:20:59;;;;;;;0.00;0.00;;;16.10;80.10;;;;;;4166652;28;20056;-64
2022/09/29 12:23:43;;;;;;;0.00;0.00;;;16.20;80.30;;;;;;4155970;28;20056;-65
2022/09/29 12:26:25;;;;;;;0.10;0.10;;;16.20;80.30;;;;;;4168551;28;20612;-65
2022/09/29 12:29:16;;;;;;;0.00;0.00;;;16.10;80.30;;;;;;4159722;28;20075;-64
2022/09/29 12:32:03;;;;;;;0.20;0.20;;;16.10;80.40;;;;;;4168636;28;20172;-65
2022/09/29 12:34:49;;;;;;;0.00;0.00;;;16.10;80.40;;;;;;4159008;28;20064;-64
2022/09/29 12:37:36;;;;;;;0.00;0.00;;;16.10;80.70;;;;;;4157034;28;20060;-65
2022/09/29 12:40:22;;;;;;;0.00;0.00;;;16.00;80.60;;;;;;4159710;28;20056;-65
2022/09/29 12:43:10;;;;;;;0.00;0.00;;;16.00;80.90;;;;;;4167831;28;20127;-65
2022/09/29 12:45:56;;;;;;;0.00;0.00;;;16.00;80.80;;;;;;4161163;28;20067;-64
2022/09/29 12:48:47;;;;;;;0.00;0.00;;;16.00;80.80;;;;;;4157604;28;20065;-65
2022/09/29 12:51:33;;;;;;;0.00;0.00;;;16.00;81.10;;;;;;4167903;28;20130;-65
2022/09/29 12:54:21;;;;;;;0.15;0.15;;;16.00;81.20;;;;;;4169083;28;20106;-64
2022/09/29 12:57:04;;;;;;;0.00;0.00;;;16.00;81.10;;;;;;4160411;28;20056;-65
2022/09/29 12:59:54;;;;;;;0.00;0.00;;;16.00;81.20;;;;;;4156427;28;20092;-64
2022/09/29 13:03:01;;;;;;;0.20;0.20;;;16.00;81.10;;;;;;4164602;28;20051;-65
2022/09/29 13:06:02;;;;;;;0.00;0.00;;;16.00;81.10;;;;;;4155446;28;20064;-64
2022/09/29 13:08:58;;;;;;;0.00;0.00;;;16.00;80.60;;;;;;4156113;28;20060;-64
2022/09/29 13:11:55;;;;;;;0.00;0.00;;;16.00;80.20;;;;;;4164857;28;20132;-64
2022/09/29 13:14:54;;;;;;;0.22;0.22;;;16.00;79.90;;;;;;4152245;28;20068;-64
2022/09/29 13:17:52;;;;;;;0.00;0.00;;;16.00;79.80;;;;;;4165577;28;20441;-64
2022/09/29 13:20:46;;;;;;;0.00;0.00;;;16.00;80.00;;;;;;4161781;28;20118;-64
2022/09/29 13:23:55;;;;;;;0.00;0.00;;;16.00;80.30;;;;;;4163197;28;20130;-64
2022/09/29 13:26:52;;;;;;;0.00;0.00;;;16.00;80.40;;;;;;4166701;28;20067;-63
2022/09/29 13:29:45;;;;;;;0.00;0.00;;;16.00;80.20;;;;;;4156143;28;20053;-64
2022/09/29 13:32:27;;;;;;;0.00;0.00;;;16.00;80.30;;;;;;4170174;28;20055;-64
2022/09/29 13:35:17;;;;;;;0.00;0.00;;;16.00;80.30;;;;;;4164668;28;20072;-63
2022/09/29 13:38:03;;;;;;;0.00;0.00;;;16.00;80.40;;;;;;4159461;28;20087;-63
2022/09/29 13:41:15;;;;;;;0.00;0.00;;;16.00;80.60;;;;;;4157417;28;20063;-64
2022/09/29 13:44:24;;;;;;;0.00;0.00;;;16.00;80.80;;;;;;4155729;28;20083;-64
2022/09/29 13:47:32;;;;;;;0.00;0.00;;;16.00;80.80;;;;;;4155811;28;20102;-64
2022/09/29 13:50:42;;;;;;;0.00;0.00;;;16.00;80.80;;;;;;4169548;28;20056;-64
2022/09/29 13:53:36;;;;;;;0.00;0.00;;;16.00;81.00;;;;;;4154683;28;20072;-64
2022/09/29 13:56:21;;;;;;;0.00;0.00;;;16.00;81.20;;;;;;4155015;28;20083;-64
2022/09/29 13:59:02;;;;;;;0.00;0.00;;;16.00;81.20;;;;;;4163988;28;20060;-64
2022/09/29 14:01:43;;;;;;;0.00;0.00;;;16.00;81.40;;;;;;4155925;28;20057;-64
2022/09/29 14:04:35;;;;;;;0.00;0.00;;;16.00;81.50;;;;;;4164315;28;20051;-64
2022/09/29 14:07:37;;;;;;;0.00;0.00;;;16.00;81.70;;;;;;4156082;28;20599;-64
2022/09/29 14:10:24;;;;;;;0.00;0.00;;;16.00;81.70;;;;;;4155374;28;20176;-63
2022/09/29 14:13:11;;;;;;;0.80;0.80;;;16.00;81.80;;;;;;4152348;28;20386;-63
2022/09/29 14:16:07;;;;;;;0.00;0.00;;;16.00;81.80;;;;;;4157002;28;20060;-62
2022/09/29 14:18:54;;;;;;;0.00;0.00;;;16.00;82.00;;;;;;4157419;28;20087;-63
2022/09/29 14:21:52;;;;;;;0.43;0.43;;;16.10;82.20;;;;;;4159558;28;20065;-63
2022/09/29 14:24:48;;;;;;;0.00;0.00;;;16.10;82.20;;;;;;4156759;28;20537;-64
2022/09/29 14:27:32;;;;;;;0.20;0.20;;;16.10;82.20;;;;;;4159700;28;20060;-63
2022/09/29 14:30:19;;;;;;;0.00;0.00;;;16.10;82.40;;;;;;4157235;28;20070;-63